sensor_id;sensor_type;location;lat;lon;timestamp;temperature;humidity
44886;DHT22;36669;51.428;21.162;2023-03-14T00:01:26;8.60;99.90
44886;DHT22;36669;51.428;21.162;2023-03-14T00:03:52;8.60;99.90
44886;DHT22;36669;51.428;21.162;2023-03-14T00:06:18;8.60;99.90
44886;DHT22;36669;51.428;21.162;2023-03-14T00:08:44;8.60;99.90
44886;DHT22;36669;51.428;21.162;2023-03-14T00:11:17;8.50;99.90
44886;DHT22;36669;51.428;21.162;2023-03-14T00:13:47;8.50;99.90
44886;DHT22;36669;51.428;21.162;2023-03-14T00:16:17;8.40;99.90
44886;DHT22;36669;51.428;21.162;2023-03-14T00:18:44;8.40;99.90
44886;DHT22;36669;51.428;21.162;2023-03-14T00:21:12;8.40;99.90
44886;DHT22;36669;51.428;21.162;2023-03-14T00:23:40;8.40;99.90
44886;DHT22;36669;51.428;21.162;2023-03-14T00:26:10;8.40;99.90
44886;DHT22;36669;51.428;21.162;2023-03-14T00:28:38;8.40;99.90
44886;DHT22;36669;51.428;21.162;2023-03-14T00:31:06;8.40;99.90
44886;DHT22;36669;51.428;21.162;2023-03-14T00:33:35;8.30;99.90
44886;DHT22;36669;51.428;21.162;2023-03-14T00:36:04;8.30;99.90
44886;DHT22;36669;51.428;21.162;2023-03-14T00:38:32;8.30;99.90
44886;DHT22;36669;51.428;21.162;2023-03-14T00:41:04;8.30;99.90
44886;DHT22;36669;51.428;21.162;2023-03-14T00:43:31;8.40;99.90
44886;DHT22;36669;51.428;21.162;2023-03-14T00:45:57;8.40;99.90
44886;DHT22;36669;51.428;21.162;2023-03-14T00:48:25;8.40;99.90
44886;DHT22;36669;51.428;21.162;2023-03-14T00:50:52;8.40;99.90
44886;DHT22;36669;51.428;21.162;2023-03-14T00:53:19;8.40;99.90
44886;DHT22;36669;51.428;21.162;2023-03-14T00:55:47;8.40;99.90
44886;DHT22;36669;51.428;21.162;2023-03-14T00:58:16;8.50;99.90
44886;DHT22;36669;51.428;21.162;2023-03-14T01:00:42;8.40;99.90
44886;DHT22;36669;51.428;21.162;2023-03-14T01:03:12;8.40;99.90
44886;DHT22;36669;51.428;21.162;2023-03-14T01:05:39;8.40;99.90
44886;DHT22;36669;51.428;21.162;2023-03-14T01:08:06;8.30;99.90
44886;DHT22;36669;51.428;21.162;2023-03-14T01:10:37;8.30;99.90
44886;DHT22;36669;51.428;21.162;2023-03-14T01:13:03;8.20;99.90
44886;DHT22;36669;51.428;21.162;2023-03-14T01:15:34;8.30;99.90
44886;DHT22;36669;51.428;21.162;2023-03-14T01:18:02;8.20;99.90
44886;DHT22;36669;51.428;21.162;2023-03-14T01:20:31;8.10;99.90
44886;DHT22;36669;51.428;21.162;2023-03-14T01:22:58;8.10;99.90
44886;DHT22;36669;51.428;21.162;2023-03-14T01:25:24;8.10;99.90
44886;DHT22;36669;51.428;21.162;2023-03-14T01:27:50;8.10;99.90
44886;DHT22;36669;51.428;21.162;2023-03-14T01:30:16;8.10;99.90
44886;DHT22;36669;51.428;21.162;2023-03-14T01:32:41;8.00;99.90
44886;DHT22;36669;51.428;21.162;2023-03-14T01:35:09;8.00;99.90
44886;DHT22;36669;51.428;21.162;2023-03-14T01:37:34;8.00;99.90
44886;DHT22;36669;51.428;21.162;2023-03-14T01:40:03;7.90;99.90
44886;DHT22;36669;51.428;21.162;2023-03-14T01:42:32;7.90;99.90
44886;DHT22;36669;51.428;21.162;2023-03-14T01:45:00;8.00;99.90
44886;DHT22;36669;51.428;21.162;2023-03-14T01:47:28;7.90;99.90
44886;DHT22;36669;51.428;21.162;2023-03-14T01:50:15;7.90;99.90
44886;DHT22;36669;51.428;21.162;2023-03-14T01:52:44;7.90;99.90
44886;DHT22;36669;51.428;21.162;2023-03-14T01:55:21;8.00;99.90
44886;DHT22;36669;51.428;21.162;2023-03-14T01:58:00;8.00;99.90
44886;DHT22;36669;51.428;21.162;2023-03-14T02:00:29;8.00;99.90
44886;DHT22;36669;51.428;21.162;2023-03-14T02:03:05;8.00;99.90
44886;DHT22;36669;51.428;21.162;2023-03-14T02:05:36;8.00;99.90
44886;DHT22;36669;51.428;21.162;2023-03-14T02:08:05;7.90;99.90
44886;DHT22;36669;51.428;21.162;2023-03-14T02:10:38;7.90;99.90
44886;DHT22;36669;51.428;21.162;2023-03-14T02:13:08;7.90;99.90
44886;DHT22;36669;51.428;21.162;2023-03-14T02:15:37;7.90;99.90
44886;DHT22;36669;51.428;21.162;2023-03-14T02:18:06;7.90;99.90
44886;DHT22;36669;51.428;21.162;2023-03-14T02:20:47;7.80;99.90
44886;DHT22;36669;51.428;21.162;2023-03-14T02:23:19;7.80;99.90
44886;DHT22;36669;51.428;21.162;2023-03-14T02:26:01;7.80;99.90
44886;DHT22;36669;51.428;21.162;2023-03-14T02:28:33;7.80;99.90
44886;DHT22;36669;51.428;21.162;2023-03-14T02:31:02;7.80;99.90
44886;DHT22;36669;51.428;21.162;2023-03-14T02:33:29;7.70;99.90
44886;DHT22;36669;51.428;21.162;2023-03-14T02:36:00;7.70;99.90
44886;DHT22;36669;51.428;21.162;2023-03-14T02:41:22;7.70;99.90
44886;DHT22;36669;51.428;21.162;2023-03-14T02:43:47;7.70;99.90
44886;DHT22;36669;51.428;21.162;2023-03-14T02:46:18;7.70;99.90
44886;DHT22;36669;51.428;21.162;2023-03-14T02:51:51;7.70;99.90
44886;DHT22;36669;51.428;21.162;2023-03-14T02:54:19;7.60;99.90
44886;DHT22;36669;51.428;21.162;2023-03-14T02:56:46;7.70;99.90
44886;DHT22;36669;51.428;21.162;2023-03-14T02:59:12;7.60;99.90
44886;DHT22;36669;51.428;21.162;2023-03-14T03:01:41;7.60;99.90
44886;DHT22;36669;51.428;21.162;2023-03-14T03:04:08;7.60;99.90
44886;DHT22;36669;51.428;21.162;2023-03-14T03:06:36;7.60;99.90
44886;DHT22;36669;51.428;21.162;2023-03-14T03:09:03;7.60;99.90
44886;DHT22;36669;51.428;21.162;2023-03-14T03:11:31;7.50;99.90
44886;DHT22;36669;51.428;21.162;2023-03-14T03:13:58;7.50;99.90
44886;DHT22;36669;51.428;21.162;2023-03-14T03:16:23;7.50;99.90
44886;DHT22;36669;51.428;21.162;2023-03-14T03:18:50;7.50;99.90
44886;DHT22;36669;51.428;21.162;2023-03-14T03:21:17;7.50;99.90
44886;DHT22;36669;51.428;21.162;2023-03-14T03:23:45;7.50;99.90
44886;DHT22;36669;51.428;21.162;2023-03-14T03:26:12;7.50;99.90
44886;DHT22;36669;51.428;21.162;2023-03-14T03:28:38;7.40;99.90
44886;DHT22;36669;51.428;21.162;2023-03-14T03:31:12;7.40;99.90
44886;DHT22;36669;51.428;21.162;2023-03-14T03:33:38;7.40;99.90
44886;DHT22;36669;51.428;21.162;2023-03-14T03:36:05;7.40;99.90
44886;DHT22;36669;51.428;21.162;2023-03-14T03:38:31;7.40;99.90
44886;DHT22;36669;51.428;21.162;2023-03-14T03:40:58;7.50;99.90
44886;DHT22;36669;51.428;21.162;2023-03-14T03:43:24;7.50;99.90
44886;DHT22;36669;51.428;21.162;2023-03-14T03:45:51;7.50;99.90
44886;DHT22;36669;51.428;21.162;2023-03-14T03:48:18;7.50;99.90
44886;DHT22;36669;51.428;21.162;2023-03-14T03:50:47;7.50;99.90
44886;DHT22;36669;51.428;21.162;2023-03-14T03:53:14;7.50;99.90
44886;DHT22;36669;51.428;21.162;2023-03-14T03:55:44;7.50;99.90
44886;DHT22;36669;51.428;21.162;2023-03-14T03:58:10;7.40;99.90
44886;DHT22;36669;51.428;21.162;2023-03-14T04:00:37;7.40;99.90
44886;DHT22;36669;51.428;21.162;2023-03-14T04:03:05;7.30;99.90
44886;DHT22;36669;51.428;21.162;2023-03-14T04:05:32;7.40;99.90
44886;DHT22;36669;51.428;21.162;2023-03-14T04:08:01;7.30;99.90
44886;DHT22;36669;51.428;21.162;2023-03-14T04:10:28;7.30;99.90
44886;DHT22;36669;51.428;21.162;2023-03-14T04:12:54;7.30;99.90
44886;DHT22;36669;51.428;21.162;2023-03-14T04:15:20;7.30;99.90
44886;DHT22;36669;51.428;21.162;2023-03-14T04:17:47;7.30;99.90
44886;DHT22;36669;51.428;21.162;2023-03-14T04:20:14;7.30;99.90
44886;DHT22;36669;51.428;21.162;2023-03-14T04:22:41;7.30;99.90
44886;DHT22;36669;51.428;21.162;2023-03-14T04:25:08;7.30;99.90
44886;DHT22;36669;51.428;21.162;2023-03-14T04:27:37;7.30;99.90
44886;DHT22;36669;51.428;21.162;2023-03-14T04:30:05;7.40;99.90
44886;DHT22;36669;51.428;21.162;2023-03-14T04:32:32;7.40;99.90
44886;DHT22;36669;51.428;21.162;2023-03-14T04:34:59;7.40;99.90
44886;DHT22;36669;51.428;21.162;2023-03-14T04:37:27;7.40;99.90
44886;DHT22;36669;51.428;21.162;2023-03-14T04:39:52;7.50;99.90
44886;DHT22;36669;51.428;21.162;2023-03-14T04:42:20;7.50;99.90
44886;DHT22;36669;51.428;21.162;2023-03-14T04:44:47;7.40;99.90
44886;DHT22;36669;51.428;21.162;2023-03-14T04:47:16;7.40;99.90
44886;DHT22;36669;51.428;21.162;2023-03-14T04:49:44;7.40;99.90
44886;DHT22;36669;51.428;21.162;2023-03-14T04:52:10;7.30;99.90
44886;DHT22;36669;51.428;21.162;2023-03-14T04:54:37;7.40;99.90
44886;DHT22;36669;51.428;21.162;2023-03-14T04:57:03;7.30;99.90
44886;DHT22;36669;51.428;21.162;2023-03-14T04:59:30;7.30;99.90
44886;DHT22;36669;51.428;21.162;2023-03-14T05:01:56;7.20;99.90
44886;DHT22;36669;51.428;21.162;2023-03-14T05:04:25;7.20;99.90
44886;DHT22;36669;51.428;21.162;2023-03-14T05:06:52;7.20;99.90
44886;DHT22;36669;51.428;21.162;2023-03-14T05:09:21;7.10;99.90
44886;DHT22;36669;51.428;21.162;2023-03-14T05:11:48;7.10;99.90
44886;DHT22;36669;51.428;21.162;2023-03-14T05:14:16;7.00;99.90
44886;DHT22;36669;51.428;21.162;2023-03-14T05:16:44;7.00;99.90
44886;DHT22;36669;51.428;21.162;2023-03-14T05:19:10;7.00;99.90
44886;DHT22;36669;51.428;21.162;2023-03-14T05:21:36;7.00;99.90
44886;DHT22;36669;51.428;21.162;2023-03-14T05:24:04;7.00;99.90
44886;DHT22;36669;51.428;21.162;2023-03-14T05:26:32;7.00;99.90
44886;DHT22;36669;51.428;21.162;2023-03-14T05:28:58;7.00;99.90
44886;DHT22;36669;51.428;21.162;2023-03-14T05:31:25;7.10;99.90
44886;DHT22;36669;51.428;21.162;2023-03-14T05:33:52;7.10;99.90
44886;DHT22;36669;51.428;21.162;2023-03-14T05:36:19;7.10;99.90
44886;DHT22;36669;51.428;21.162;2023-03-14T05:38:47;7.20;99.90
44886;DHT22;36669;51.428;21.162;2023-03-14T05:41:12;7.20;99.90
44886;DHT22;36669;51.428;21.162;2023-03-14T05:43:38;7.30;99.90
44886;DHT22;36669;51.428;21.162;2023-03-14T05:46:27;7.40;99.90
44886;DHT22;36669;51.428;21.162;2023-03-14T05:48:56;7.50;99.90
44886;DHT22;36669;51.428;21.162;2023-03-14T05:51:22;7.60;99.90
44886;DHT22;36669;51.428;21.162;2023-03-14T05:53:49;7.70;99.90
44886;DHT22;36669;51.428;21.162;2023-03-14T05:56:18;7.80;99.90
44886;DHT22;36669;51.428;21.162;2023-03-14T05:58:45;8.00;99.90
44886;DHT22;36669;51.428;21.162;2023-03-14T06:01:10;8.10;99.90
44886;DHT22;36669;51.428;21.162;2023-03-14T06:03:36;8.20;99.90
44886;DHT22;36669;51.428;21.162;2023-03-14T06:06:03;8.30;99.90
44886;DHT22;36669;51.428;21.162;2023-03-14T06:08:29;8.40;99.90
44886;DHT22;36669;51.428;21.162;2023-03-14T06:11:02;8.50;99.90
44886;DHT22;36669;51.428;21.162;2023-03-14T06:13:28;8.60;99.90
44886;DHT22;36669;51.428;21.162;2023-03-14T06:15:54;8.70;99.90
44886;DHT22;36669;51.428;21.162;2023-03-14T06:18:19;8.80;99.90
44886;DHT22;36669;51.428;21.162;2023-03-14T06:20:47;8.80;99.90
44886;DHT22;36669;51.428;21.162;2023-03-14T06:23:14;8.90;99.90
44886;DHT22;36669;51.428;21.162;2023-03-14T06:25:40;9.00;99.90
44886;DHT22;36669;51.428;21.162;2023-03-14T06:28:06;9.00;99.90
44886;DHT22;36669;51.428;21.162;2023-03-14T06:30:33;9.10;99.90
44886;DHT22;36669;51.428;21.162;2023-03-14T06:33:02;9.10;99.90
44886;DHT22;36669;51.428;21.162;2023-03-14T06:35:29;9.20;99.90
44886;DHT22;36669;51.428;21.162;2023-03-14T06:37:54;9.20;99.90
44886;DHT22;36669;51.428;21.162;2023-03-14T06:40:21;9.30;99.90
44886;DHT22;36669;51.428;21.162;2023-03-14T06:42:48;9.40;99.90
44886;DHT22;36669;51.428;21.162;2023-03-14T06:45:14;9.60;99.90
44886;DHT22;36669;51.428;21.162;2023-03-14T06:47:41;9.60;99.90
44886;DHT22;36669;51.428;21.162;2023-03-14T06:50:09;9.70;99.90
44886;DHT22;36669;51.428;21.162;2023-03-14T06:52:37;9.70;99.90
44886;DHT22;36669;51.428;21.162;2023-03-14T06:55:06;9.80;99.90
44886;DHT22;36669;51.428;21.162;2023-03-14T06:57:31;9.80;99.90
44886;DHT22;36669;51.428;21.162;2023-03-14T06:59:57;9.80;99.90
44886;DHT22;36669;51.428;21.162;2023-03-14T07:02:24;9.90;99.90
44886;DHT22;36669;51.428;21.162;2023-03-14T07:04:51;10.00;99.90
44886;DHT22;36669;51.428;21.162;2023-03-14T07:07:18;10.10;99.90
44886;DHT22;36669;51.428;21.162;2023-03-14T07:09:45;10.10;99.90
44886;DHT22;36669;51.428;21.162;2023-03-14T07:12:10;10.20;99.90
44886;DHT22;36669;51.428;21.162;2023-03-14T07:14:38;10.30;99.90
44886;DHT22;36669;51.428;21.162;2023-03-14T07:17:07;10.40;99.90
44886;DHT22;36669;51.428;21.162;2023-03-14T07:19:33;10.40;99.90
44886;DHT22;36669;51.428;21.162;2023-03-14T07:22:00;10.50;99.90
44886;DHT22;36669;51.428;21.162;2023-03-14T07:24:26;10.50;99.90
44886;DHT22;36669;51.428;21.162;2023-03-14T07:26:53;10.60;99.90
44886;DHT22;36669;51.428;21.162;2023-03-14T07:29:20;10.60;99.90
44886;DHT22;36669;51.428;21.162;2023-03-14T07:31:47;10.70;99.90
44886;DHT22;36669;51.428;21.162;2023-03-14T07:34:14;10.80;99.90
44886;DHT22;36669;51.428;21.162;2023-03-14T07:36:41;10.80;99.90
44886;DHT22;36669;51.428;21.162;2023-03-14T07:39:08;10.90;99.90
44886;DHT22;36669;51.428;21.162;2023-03-14T07:41:33;11.00;99.90
44886;DHT22;36669;51.428;21.162;2023-03-14T07:44:02;11.20;99.90
44886;DHT22;36669;51.428;21.162;2023-03-14T07:46:28;11.20;99.90
44886;DHT22;36669;51.428;21.162;2023-03-14T07:48:54;11.40;99.90
44886;DHT22;36669;51.428;21.162;2023-03-14T07:51:22;11.40;99.90
44886;DHT22;36669;51.428;21.162;2023-03-14T07:53:49;11.50;99.90
44886;DHT22;36669;51.428;21.162;2023-03-14T07:56:15;11.60;99.90
44886;DHT22;36669;51.428;21.162;2023-03-14T07:58:41;11.70;99.90
44886;DHT22;36669;51.428;21.162;2023-03-14T08:01:07;11.80;99.90
44886;DHT22;36669;51.428;21.162;2023-03-14T08:03:34;11.80;99.90
44886;DHT22;36669;51.428;21.162;2023-03-14T08:05:59;11.90;99.90
44886;DHT22;36669;51.428;21.162;2023-03-14T08:08:25;12.00;99.90
44886;DHT22;36669;51.428;21.162;2023-03-14T08:10:52;12.10;99.90
44886;DHT22;36669;51.428;21.162;2023-03-14T08:13:19;12.20;99.90
44886;DHT22;36669;51.428;21.162;2023-03-14T08:15:48;12.30;99.90
44886;DHT22;36669;51.428;21.162;2023-03-14T08:18:18;12.40;99.90
44886;DHT22;36669;51.428;21.162;2023-03-14T08:20:46;12.50;99.90
44886;DHT22;36669;51.428;21.162;2023-03-14T08:23:17;12.60;99.90
44886;DHT22;36669;51.428;21.162;2023-03-14T08:25:44;12.60;99.90
44886;DHT22;36669;51.428;21.162;2023-03-14T08:28:11;12.80;99.90
44886;DHT22;36669;51.428;21.162;2023-03-14T08:30:37;13.00;99.90
44886;DHT22;36669;51.428;21.162;2023-03-14T08:33:04;13.10;99.90
44886;DHT22;36669;51.428;21.162;2023-03-14T08:35:30;13.20;99.90
44886;DHT22;36669;51.428;21.162;2023-03-14T08:37:58;13.30;99.90
44886;DHT22;36669;51.428;21.162;2023-03-14T08:40:26;13.40;99.90
44886;DHT22;36669;51.428;21.162;2023-03-14T08:42:53;13.50;99.90
44886;DHT22;36669;51.428;21.162;2023-03-14T08:45:21;13.60;99.90
44886;DHT22;36669;51.428;21.162;2023-03-14T08:47:48;13.70;99.90
44886;DHT22;36669;51.428;21.162;2023-03-14T08:50:14;13.80;99.40
44886;DHT22;36669;51.428;21.162;2023-03-14T08:52:41;13.80;98.70
44886;DHT22;36669;51.428;21.162;2023-03-14T08:55:11;13.80;98.60
44886;DHT22;36669;51.428;21.162;2023-03-14T08:57:39;13.90;99.40
44886;DHT22;36669;51.428;21.162;2023-03-14T09:00:09;13.90;98.90
44886;DHT22;36669;51.428;21.162;2023-03-14T09:02:39;13.90;97.60
44886;DHT22;36669;51.428;21.162;2023-03-14T09:05:08;14.00;97.10
44886;DHT22;36669;51.428;21.162;2023-03-14T09:07:33;14.00;97.10
44886;DHT22;36669;51.428;21.162;2023-03-14T09:10:02;13.90;96.90
44886;DHT22;36669;51.428;21.162;2023-03-14T09:12:27;14.00;97.30
44886;DHT22;36669;51.428;21.162;2023-03-14T09:14:56;14.10;96.80
44886;DHT22;36669;51.428;21.162;2023-03-14T09:17:23;14.20;96.80
44886;DHT22;36669;51.428;21.162;2023-03-14T09:19:49;14.20;96.80
44886;DHT22;36669;51.428;21.162;2023-03-14T09:22:16;14.30;96.30
44886;DHT22;36669;51.428;21.162;2023-03-14T09:24:43;14.30;96.20
44886;DHT22;36669;51.428;21.162;2023-03-14T09:27:09;14.40;96.30
44886;DHT22;36669;51.428;21.162;2023-03-14T09:29:36;14.50;96.10
44886;DHT22;36669;51.428;21.162;2023-03-14T09:32:02;14.50;96.20
44886;DHT22;36669;51.428;21.162;2023-03-14T09:34:32;14.60;96.30
44886;DHT22;36669;51.428;21.162;2023-03-14T09:36:59;14.70;96.10
44886;DHT22;36669;51.428;21.162;2023-03-14T09:39:26;14.80;95.90
44886;DHT22;36669;51.428;21.162;2023-03-14T09:41:53;14.90;95.40
44886;DHT22;36669;51.428;21.162;2023-03-14T09:44:32;15.10;95.20
44886;DHT22;36669;51.428;21.162;2023-03-14T09:47:06;15.10;94.60
44886;DHT22;36669;51.428;21.162;2023-03-14T09:49:44;15.20;94.60
44886;DHT22;36669;51.428;21.162;2023-03-14T09:52:29;15.30;94.60
44886;DHT22;36669;51.428;21.162;2023-03-14T09:55:17;15.40;94.20
44886;DHT22;36669;51.428;21.162;2023-03-14T09:57:45;15.30;93.20
44886;DHT22;36669;51.428;21.162;2023-03-14T10:00:25;15.50;93.80
44886;DHT22;36669;51.428;21.162;2023-03-14T10:03:29;15.50;92.50
44886;DHT22;36669;51.428;21.162;2023-03-14T10:05:50;15.60;93.10
44886;DHT22;36669;51.428;21.162;2023-03-14T10:08:17;15.70;92.60
44886;DHT22;36669;51.428;21.162;2023-03-14T10:10:46;15.70;91.90
44886;DHT22;36669;51.428;21.162;2023-03-14T10:13:20;15.90;91.80
44886;DHT22;36669;51.428;21.162;2023-03-14T10:16:04;15.70;91.60
44886;DHT22;36669;51.428;21.162;2023-03-14T10:18:33;15.80;91.30
44886;DHT22;36669;51.428;21.162;2023-03-14T10:21:26;15.70;91.10
44886;DHT22;36669;51.428;21.162;2023-03-14T10:24:08;15.70;90.70
44886;DHT22;36669;51.428;21.162;2023-03-14T10:26:36;15.70;91.10
44886;DHT22;36669;51.428;21.162;2023-03-14T10:29:08;15.80;91.00
44886;DHT22;36669;51.428;21.162;2023-03-14T10:32:10;15.90;91.40
44886;DHT22;36669;51.428;21.162;2023-03-14T10:35:07;16.10;90.60
44886;DHT22;36669;51.428;21.162;2023-03-14T10:37:35;16.10;90.50
44886;DHT22;36669;51.428;21.162;2023-03-14T10:40:15;15.80;89.30
44886;DHT22;36669;51.428;21.162;2023-03-14T10:42:43;15.90;89.90
44886;DHT22;36669;51.428;21.162;2023-03-14T10:48:20;15.30;90.60
44886;DHT22;36669;51.428;21.162;2023-03-14T10:51:09;15.40;90.80
44886;DHT22;36669;51.428;21.162;2023-03-14T10:56:36;15.50;91.80
44886;DHT22;36669;51.428;21.162;2023-03-14T10:59:07;15.40;91.00
44886;DHT22;36669;51.428;21.162;2023-03-14T11:01:44;15.60;91.40
44886;DHT22;36669;51.428;21.162;2023-03-14T11:07:15;15.90;91.20
44886;DHT22;36669;51.428;21.162;2023-03-14T11:10:52;16.20;90.80
44886;DHT22;36669;51.428;21.162;2023-03-14T11:19:00;15.60;91.70
44886;DHT22;36669;51.428;21.162;2023-03-14T11:21:52;15.60;92.20
44886;DHT22;36669;51.428;21.162;2023-03-14T11:27:18;15.90;91.30
44886;DHT22;36669;51.428;21.162;2023-03-14T11:32:43;16.10;91.50
44886;DHT22;36669;51.428;21.162;2023-03-14T11:35:41;16.20;91.50
44886;DHT22;36669;51.428;21.162;2023-03-14T11:38:36;16.10;91.90
44886;DHT22;36669;51.428;21.162;2023-03-14T11:41:04;15.80;91.90
44886;DHT22;36669;51.428;21.162;2023-03-14T11:43:39;15.60;93.00
44886;DHT22;36669;51.428;21.162;2023-03-14T11:46:18;16.00;93.10
44886;DHT22;36669;51.428;21.162;2023-03-14T11:51:33;16.00;92.50
44886;DHT22;36669;51.428;21.162;2023-03-14T11:57:22;15.80;93.40
44886;DHT22;36669;51.428;21.162;2023-03-14T12:02:58;16.10;93.70
44886;DHT22;36669;51.428;21.162;2023-03-14T12:11:10;15.40;94.40
44886;DHT22;36669;51.428;21.162;2023-03-14T12:13:40;15.60;95.10
44886;DHT22;36669;51.428;21.162;2023-03-14T12:16:32;15.90;94.90
44886;DHT22;36669;51.428;21.162;2023-03-14T12:19:26;16.00;94.80
44886;DHT22;36669;51.428;21.162;2023-03-14T12:24:31;16.10;93.90
44886;DHT22;36669;51.428;21.162;2023-03-14T12:27:01;15.70;94.40
44886;DHT22;36669;51.428;21.162;2023-03-14T12:29:29;15.70;94.70
44886;DHT22;36669;51.428;21.162;2023-03-14T12:32:20;15.70;94.70
44886;DHT22;36669;51.428;21.162;2023-03-14T12:34:50;15.50;95.60
44886;DHT22;36669;51.428;21.162;2023-03-14T12:37:41;15.50;95.90
44886;DHT22;36669;51.428;21.162;2023-03-14T12:40:31;15.50;97.00
44886;DHT22;36669;51.428;21.162;2023-03-14T12:43:00;15.40;96.20
44886;DHT22;36669;51.428;21.162;2023-03-14T12:45:34;15.40;96.50
44886;DHT22;36669;51.428;21.162;2023-03-14T12:48:21;15.30;96.50
44886;DHT22;36669;51.428;21.162;2023-03-14T12:51:11;15.30;97.20
44886;DHT22;36669;51.428;21.162;2023-03-14T12:53:44;15.10;97.80
44886;DHT22;36669;51.428;21.162;2023-03-14T13:04:47;14.80;99.90
44886;DHT22;36669;51.428;21.162;2023-03-14T13:13:11;14.50;99.90
44886;DHT22;36669;51.428;21.162;2023-03-14T13:15:45;14.40;99.90
44886;DHT22;36669;51.428;21.162;2023-03-14T13:18:37;14.30;99.90
44886;DHT22;36669;51.428;21.162;2023-03-14T13:21:34;14.30;99.90
44886;DHT22;36669;51.428;21.162;2023-03-14T13:24:20;14.10;99.90
44886;DHT22;36669;51.428;21.162;2023-03-14T13:26:54;13.90;99.90
44886;DHT22;36669;51.428;21.162;2023-03-14T13:29:28;13.80;99.90
44886;DHT22;36669;51.428;21.162;2023-03-14T13:32:16;13.70;99.90
44886;DHT22;36669;51.428;21.162;2023-03-14T13:34:42;13.60;99.90
44886;DHT22;36669;51.428;21.162;2023-03-14T13:37:21;13.50;99.90
44886;DHT22;36669;51.428;21.162;2023-03-14T13:39:53;13.40;99.90
44886;DHT22;36669;51.428;21.162;2023-03-14T13:42:24;13.30;99.90
44886;DHT22;36669;51.428;21.162;2023-03-14T13:44:54;13.20;99.90
44886;DHT22;36669;51.428;21.162;2023-03-14T13:47:25;13.10;99.90
44886;DHT22;36669;51.428;21.162;2023-03-14T13:49:53;13.10;99.90
44886;DHT22;36669;51.428;21.162;2023-03-14T13:52:39;13.10;99.90
44886;DHT22;36669;51.428;21.162;2023-03-14T13:55:12;13.00;99.90
44886;DHT22;36669;51.428;21.162;2023-03-14T13:57:49;12.90;99.90
44886;DHT22;36669;51.428;21.162;2023-03-14T14:00:24;12.80;99.90
44886;DHT22;36669;51.428;21.162;2023-03-14T14:02:58;12.70;99.90
44886;DHT22;36669;51.428;21.162;2023-03-14T14:05:30;12.60;99.90
44886;DHT22;36669;51.428;21.162;2023-03-14T14:07:58;12.60;99.90
44886;DHT22;36669;51.428;21.162;2023-03-14T14:10:36;12.50;99.90
44886;DHT22;36669;51.428;21.162;2023-03-14T14:13:06;12.50;99.90
44886;DHT22;36669;51.428;21.162;2023-03-14T14:15:39;12.50;99.90
44886;DHT22;36669;51.428;21.162;2023-03-14T14:18:10;12.50;99.90
44886;DHT22;36669;51.428;21.162;2023-03-14T14:20:42;12.50;99.90
44886;DHT22;36669;51.428;21.162;2023-03-14T14:23:28;12.50;99.90
44886;DHT22;36669;51.428;21.162;2023-03-14T14:25:56;12.50;99.90
44886;DHT22;36669;51.428;21.162;2023-03-14T14:28:34;12.50;99.90
44886;DHT22;36669;51.428;21.162;2023-03-14T14:33:53;12.50;99.90
44886;DHT22;36669;51.428;21.162;2023-03-14T14:36:40;12.50;99.90
44886;DHT22;36669;51.428;21.162;2023-03-14T14:39:26;12.50;99.90
44886;DHT22;36669;51.428;21.162;2023-03-14T14:41:54;12.50;99.90
44886;DHT22;36669;51.428;21.162;2023-03-14T14:44:33;12.50;99.90
44886;DHT22;36669;51.428;21.162;2023-03-14T14:47:03;12.50;99.90
44886;DHT22;36669;51.428;21.162;2023-03-14T14:49:32;12.40;99.90
44886;DHT22;36669;51.428;21.162;2023-03-14T14:52:30;12.40;99.90
44886;DHT22;36669;51.428;21.162;2023-03-14T14:54:54;12.40;99.90
44886;DHT22;36669;51.428;21.162;2023-03-14T14:57:26;12.50;99.90
44886;DHT22;36669;51.428;21.162;2023-03-14T15:00:10;12.50;99.90
44886;DHT22;36669;51.428;21.162;2023-03-14T15:02:58;12.50;99.90
44886;DHT22;36669;51.428;21.162;2023-03-14T15:05:39;12.40;99.90
44886;DHT22;36669;51.428;21.162;2023-03-14T15:08:11;12.50;99.90
44886;DHT22;36669;51.428;21.162;2023-03-14T15:10:38;12.40;99.90
44886;DHT22;36669;51.428;21.162;2023-03-14T15:13:04;12.40;99.90
44886;DHT22;36669;51.428;21.162;2023-03-14T15:15:31;12.40;99.90
44886;DHT22;36669;51.428;21.162;2023-03-14T15:17:58;12.40;99.90
44886;DHT22;36669;51.428;21.162;2023-03-14T15:20:25;12.50;99.90
44886;DHT22;36669;51.428;21.162;2023-03-14T15:22:52;12.50;99.90
44886;DHT22;36669;51.428;21.162;2023-03-14T15:25:19;12.40;99.90
44886;DHT22;36669;51.428;21.162;2023-03-14T15:27:44;12.50;99.90
44886;DHT22;36669;51.428;21.162;2023-03-14T15:30:16;12.50;99.90
44886;DHT22;36669;51.428;21.162;2023-03-14T15:32:44;12.50;99.90
44886;DHT22;36669;51.428;21.162;2023-03-14T15:35:12;12.50;99.90
44886;DHT22;36669;51.428;21.162;2023-03-14T15:37:39;12.50;99.90
44886;DHT22;36669;51.428;21.162;2023-03-14T15:40:06;12.50;99.90
44886;DHT22;36669;51.428;21.162;2023-03-14T15:42:39;12.40;99.90
44886;DHT22;36669;51.428;21.162;2023-03-14T15:45:06;12.50;99.90
44886;DHT22;36669;51.428;21.162;2023-03-14T15:47:33;12.50;99.90
44886;DHT22;36669;51.428;21.162;2023-03-14T15:50:02;12.50;99.90
44886;DHT22;36669;51.428;21.162;2023-03-14T15:52:28;12.50;99.90
44886;DHT22;36669;51.428;21.162;2023-03-14T15:54:55;12.50;99.90
44886;DHT22;36669;51.428;21.162;2023-03-14T15:57:20;12.50;99.90
44886;DHT22;36669;51.428;21.162;2023-03-14T15:59:47;12.40;99.90
44886;DHT22;36669;51.428;21.162;2023-03-14T16:02:13;12.40;99.90
44886;DHT22;36669;51.428;21.162;2023-03-14T16:04:40;12.40;99.90
44886;DHT22;36669;51.428;21.162;2023-03-14T16:07:07;12.40;99.90
44886;DHT22;36669;51.428;21.162;2023-03-14T16:09:32;12.30;99.90
44886;DHT22;36669;51.428;21.162;2023-03-14T16:11:58;12.30;99.90
44886;DHT22;36669;51.428;21.162;2023-03-14T16:14:25;12.30;99.90
44886;DHT22;36669;51.428;21.162;2023-03-14T16:16:55;12.30;99.90
44886;DHT22;36669;51.428;21.162;2023-03-14T16:19:26;12.30;99.90
44886;DHT22;36669;51.428;21.162;2023-03-14T16:21:59;12.30;99.90
44886;DHT22;36669;51.428;21.162;2023-03-14T16:24:25;12.30;99.90
44886;DHT22;36669;51.428;21.162;2023-03-14T16:26:51;12.30;99.90
44886;DHT22;36669;51.428;21.162;2023-03-14T16:29:17;12.30;99.90
44886;DHT22;36669;51.428;21.162;2023-03-14T16:31:45;12.30;99.90
44886;DHT22;36669;51.428;21.162;2023-03-14T16:34:13;12.30;99.90
44886;DHT22;36669;51.428;21.162;2023-03-14T16:36:40;12.30;99.90
44886;DHT22;36669;51.428;21.162;2023-03-14T16:39:09;12.30;99.90
44886;DHT22;36669;51.428;21.162;2023-03-14T16:41:34;12.30;99.90
44886;DHT22;36669;51.428;21.162;2023-03-14T16:44:01;12.30;99.90